Time;durP1;ratioP1;P1;durP2;ratioP2;P2;SDS_P1;SDS_P2;PMS_P1;PMS_P2;Temp;Humidity;BMP_temperature;BMP_pressure;BME280_temperature;BME280_humidity;BME280_pressure;Samples;Min_cycle;Max_cycle;Signal;HPM_P1;HPM_P2
2022/05/08 00:00:57;;;;;;;15.68;11.00;;;;;;;14.87;100.00;100768.75;5072927;28;20387;-81
2022/05/08 00:03:22;;;;;;;17.75;11.50;;;;;;;14.95;100.00;100768.66;5073296;28;20036;-81
2022/05/08 00:05:48;;;;;;;12.93;10.07;;;;;;;14.94;100.00;100773.19;5084154;28;20030;-80
2022/05/08 00:08:13;;;;;;;20.95;11.05;;;;;;;14.83;100.00;100767.47;5088756;28;20036;-82
2022/05/08 00:10:40;;;;;;;23.65;11.40;;;;;;;14.90;100.00;100769.22;5083503;28;20054;-81
2022/05/08 00:13:06;;;;;;;17.02;11.77;;;;;;;14.90;100.00;100766.56;5060476;28;20162;-82
2022/05/08 00:15:31;;;;;;;12.80;11.10;;;;;;;14.98;100.00;100766.44;5073660;28;20136;-82
2022/05/08 00:17:57;;;;;;;24.67;11.93;;;;;;;14.82;100.00;100763.97;5073614;28;20032;-80
2022/05/08 00:20:24;;;;;;;21.33;12.05;;;;;;;14.80;100.00;100762.50;5072506;28;20090;-81
2022/05/08 00:22:49;;;;;;;18.42;12.00;;;;;;;14.79;100.00;100761.66;5072337;28;20040;-80
2022/05/08 00:25:15;;;;;;;17.38;12.02;;;;;;;14.91;100.00;100767.41;5072619;28;20060;-79
2022/05/08 00:27:41;;;;;;;16.48;13.23;;;;;;;14.92;100.00;100764.53;5072840;28;20094;-82
2022/05/08 00:30:07;;;;;;;18.90;13.27;;;;;;;14.92;100.00;100759.19;5072663;28;20032;-80
2022/05/08 00:32:32;;;;;;;16.55;12.15;;;;;;;14.85;100.00;100763.59;5072517;28;20039;-81
2022/05/08 00:34:58;;;;;;;18.38;12.68;;;;;;;14.70;100.00;100765.44;5072585;28;20024;-80
2022/05/08 00:37:23;;;;;;;22.05;12.85;;;;;;;14.66;100.00;100758.81;5072270;28;20055;-80
2022/05/08 00:39:49;;;;;;;16.52;12.30;;;;;;;14.72;100.00;100763.41;5054314;28;20044;-81
2022/05/08 00:42:17;;;;;;;18.77;13.07;;;;;;;14.62;100.00;100760.19;5072429;28;20041;-81
2022/05/08 00:44:43;;;;;;;16.65;12.40;;;;;;;14.57;100.00;100757.25;5072662;28;20032;-82
2022/05/08 00:47:08;;;;;;;18.55;12.07;;;;;;;14.48;100.00;100764.47;5072551;28;20029;-82
2022/05/08 00:49:34;;;;;;;17.58;12.38;;;;;;;14.60;100.00;100762.22;5072468;28;20088;-84
2022/05/08 00:52:04;;;;;;;17.83;12.05;;;;;;;14.73;100.00;100757.06;5072209;28;20048;-81
2022/05/08 00:54:30;;;;;;;20.73;13.07;;;;;;;14.70;100.00;100751.28;5073132;28;20029;-81
2022/05/08 00:56:57;;;;;;;19.67;12.25;;;;;;;14.65;100.00;100749.13;5072321;28;20037;-81
2022/05/08 00:59:24;;;;;;;19.80;11.98;;;;;;;14.69;100.00;100753.09;5073052;28;20058;-82
2022/05/08 01:01:50;;;;;;;16.30;12.55;;;;;;;14.74;100.00;100750.72;5072407;28;20128;-83
2022/05/08 01:04:15;;;;;;;18.65;12.27;;;;;;;14.75;100.00;100757.69;5072152;28;20498;-80
2022/05/08 01:06:43;;;;;;;17.42;12.35;;;;;;;14.68;100.00;100750.63;5072563;28;20478;-81
2022/05/08 01:09:09;;;;;;;18.38;12.65;;;;;;;14.58;100.00;100748.25;5071896;28;20507;-81
2022/05/08 01:11:36;;;;;;;18.02;12.43;;;;;;;14.50;100.00;100748.31;5054508;28;20071;-81
2022/05/08 01:14:02;;;;;;;18.50;12.27;;;;;;;14.53;100.00;100745.28;5071687;28;20047;-81
2022/05/08 01:16:29;;;;;;;16.33;12.00;;;;;;;14.65;100.00;100746.47;5071953;28;20119;-80
2022/05/08 01:18:55;;;;;;;15.35;11.90;;;;;;;14.63;100.00;100743.16;5072219;28;20386;-82
2022/05/08 01:21:41;;;;;;;15.90;11.75;;;;;;;14.43;100.00;100737.53;5072673;28;20040;-83
2022/05/08 01:24:14;;;;;;;14.13;10.88;;;;;;;14.54;100.00;100744.28;5054755;28;20032;-82
2022/05/08 01:26:40;;;;;;;16.90;12.77;;;;;;;14.45;100.00;100746.19;5074971;28;20033;-82
2022/05/08 01:29:06;;;;;;;17.60;12.77;;;;;;;14.44;100.00;100744.53;5079946;28;20055;-80
2022/05/08 01:31:32;;;;;;;18.17;12.35;;;;;;;14.27;100.00;100752.81;5059290;28;20040;-80
2022/05/08 01:33:58;;;;;;;18.80;12.77;;;;;;;14.14;100.00;100747.28;5075552;28;20040;-79
2022/05/08 01:36:26;;;;;;;18.90;12.98;;;;;;;14.16;100.00;100748.75;5075476;28;20074;-80
2022/05/08 01:38:55;;;;;;;19.02;12.73;;;;;;;14.16;100.00;100745.25;5057975;28;20119;-82
2022/05/08 01:41:21;;;;;;;15.85;12.35;;;;;;;14.20;100.00;100741.22;5076040;28;20043;-79
2022/05/08 01:43:46;;;;;;;20.33;12.80;;;;;;;14.19;100.00;100740.38;5057785;28;20040;-80
2022/05/08 01:46:12;;;;;;;19.70;13.63;;;;;;;14.13;100.00;100740.28;5057555;28;20043;-82
2022/05/08 01:48:37;;;;;;;16.23;12.60;;;;;;;13.99;100.00;100742.72;5075212;28;20017;-81
2022/05/08 01:51:04;;;;;;;20.38;13.95;;;;;;;13.89;100.00;100739.47;5075317;28;20041;-82
2022/05/08 01:53:33;;;;;;;17.60;13.43;;;;;;;14.00;100.00;100738.22;5057820;28;20033;-82
2022/05/08 01:55:59;;;;;;;18.35;13.15;;;;;;;13.88;100.00;100742.34;5075596;28;20036;-83
2022/05/08 01:58:27;;;;;;;19.35;12.60;;;;;;;13.82;100.00;100746.50;5057937;28;20072;-81
2022/05/08 02:00:54;;;;;;;17.17;13.30;;;;;;;13.96;100.00;100742.25;5075241;28;20391;-81
2022/05/08 02:03:20;;;;;;;16.80;12.32;;;;;;;13.93;100.00;100746.09;5075083;28;20032;-83
2022/05/08 02:05:46;;;;;;;19.52;13.10;;;;;;;13.89;100.00;100738.63;5075072;28;20036;-80
2022/05/08 02:08:13;;;;;;;20.65;12.25;;;;;;;13.88;100.00;100731.69;5074989;28;20431;-82
2022/05/08 02:10:41;;;;;;;18.48;11.98;;;;;;;13.88;100.00;100737.00;5074918;28;20137;-82
2022/05/08 02:13:09;;;;;;;16.55;11.55;;;;;;;14.02;100.00;100740.72;5074875;28;20426;-83
2022/05/08 02:15:36;;;;;;;15.55;11.80;;;;;;;14.02;100.00;100746.06;5074995;28;20068;-82
2022/05/08 02:18:03;;;;;;;15.10;10.55;;;;;;;14.07;100.00;100746.34;5074916;28;20399;-82
2022/05/08 02:20:30;;;;;;;14.93;11.23;;;;;;;14.06;100.00;100744.66;5074619;28;20078;-82
2022/05/08 02:22:57;;;;;;;19.15;11.32;;;;;;;13.95;100.00;100746.75;5074737;28;20024;-81
2022/05/08 02:25:23;;;;;;;12.20;10.38;;;;;;;14.02;100.00;100741.53;5074684;28;20134;-83
2022/05/08 02:27:49;;;;;;;21.35;10.70;;;;;;;14.16;100.00;100743.41;5056770;28;20064;-82
2022/05/08 02:30:17;;;;;;;21.00;11.55;;;;;;;14.05;100.00;100740.38;5074583;28;20071;-81
2022/05/08 02:32:43;;;;;;;16.50;10.65;;;;;;;13.97;100.00;100741.25;5074819;28;20124;-81
2022/05/08 02:35:10;;;;;;;17.88;11.05;;;;;;;13.90;100.00;100735.81;5074373;28;20036;-82
2022/05/08 02:37:36;;;;;;;18.92;9.90;;;;;;;13.82;100.00;100735.06;5074771;28;20032;-83
2022/05/08 02:40:02;;;;;;;19.75;10.38;;;;;;;13.77;100.00;100730.25;5081591;28;20039;-80
2022/05/08 02:42:28;;;;;;;13.88;9.35;;;;;;;13.81;100.00;100736.88;5082327;28;20075;-82
2022/05/08 02:44:53;;;;;;;13.98;10.00;;;;;;;13.69;100.00;100726.78;5062382;28;20063;-82
2022/05/08 02:47:19;;;;;;;17.38;9.68;;;;;;;13.77;100.00;100732.91;5074506;28;20032;-83
2022/05/08 02:49:45;;;;;;;17.50;9.55;;;;;;;13.80;100.00;100729.88;5056505;28;20510;-83
2022/05/08 02:52:10;;;;;;;15.65;9.63;;;;;;;13.78;100.00;100731.91;5076394;28;20037;-83
2022/05/08 02:54:35;;;;;;;17.45;10.45;;;;;;;13.76;100.00;100727.75;5074283;28;20082;-82
2022/05/08 02:59:45;;;;;;;14.98;10.25;;;;;;;13.80;100.00;100723.72;5074503;28;20479;-82
2022/05/08 03:02:10;;;;;;;13.23;9.80;;;;;;;13.85;100.00;100726.69;5074039;28;20116;-81
2022/05/08 03:04:36;;;;;;;13.95;10.00;;;;;;;13.81;100.00;100726.22;5074007;28;20450;-83
2022/05/08 03:07:02;;;;;;;12.95;9.55;;;;;;;13.81;100.00;100726.22;5073783;28;20499;-83
2022/05/08 03:09:28;;;;;;;15.75;10.27;;;;;;;13.76;100.00;100725.91;5074494;28;20364;-84
2022/05/08 03:11:53;;;;;;;15.05;9.65;;;;;;;13.62;100.00;100728.53;5075553;28;20502;-81
2022/05/08 03:14:20;;;;;;;12.40;9.65;;;;;;;13.66;100.00;100730.66;5074374;28;20124;-82
2022/05/08 03:16:49;;;;;;;13.65;9.88;;;;;;;13.73;100.00;100726.28;5074409;28;20068;-83
2022/05/08 03:19:14;;;;;;;14.70;9.45;;;;;;;13.78;100.00;100726.59;5075121;28;20031;-83
2022/05/08 03:21:40;;;;;;;13.48;9.48;;;;;;;13.86;100.00;100728.34;5074994;28;20068;-80
2022/05/08 03:24:08;;;;;;;18.67;9.27;;;;;;;13.85;100.00;100727.50;5074607;28;20040;-82
2022/05/08 03:26:34;;;;;;;13.48;9.07;;;;;;;13.66;100.00;100725.31;5074470;28;20032;-82
2022/05/08 03:28:59;;;;;;;16.08;8.68;;;;;;;13.67;100.00;100724.31;5074773;28;20132;-85
2022/05/08 03:31:26;;;;;;;12.55;8.40;;;;;;;13.56;100.00;100727.38;5074804;28;20039;-83
2022/05/08 03:33:52;;;;;;;12.05;8.48;;;;;;;13.65;100.00;100730.84;5073866;28;20028;-83
2022/05/08 03:36:18;;;;;;;12.27;8.20;;;;;;;13.65;100.00;100737.00;5074043;28;20032;-83
2022/05/08 03:38:45;;;;;;;10.77;8.00;;;;;;;13.64;100.00;100737.16;5073563;28;20443;-82
2022/05/08 03:41:15;;;;;;;15.27;7.85;;;;;;;13.46;100.00;100738.25;5073795;28;20399;-82
2022/05/08 03:43:45;;;;;;;10.85;8.07;;;;;;;13.33;100.00;100738.00;5074068;28;20438;-83
2022/05/08 03:46:13;;;;;;;16.60;8.10;;;;;;;13.56;100.00;100738.03;5073959;28;20036;-83
2022/05/08 03:48:39;;;;;;;9.52;7.47;;;;;;;13.64;100.00;100735.34;5073616;28;20026;-84
2022/05/08 03:51:04;;;;;;;12.13;7.43;;;;;;;13.67;100.00;100742.97;5073456;28;20119;-83
2022/05/08 03:53:31;;;;;;;10.07;7.63;;;;;;;13.61;100.00;100735.69;5073373;28;20044;-83
2022/05/08 03:55:58;;;;;;;7.90;7.03;;;;;;;13.78;100.00;100736.41;5073639;28;20029;-82
2022/05/08 03:58:23;;;;;;;13.30;7.35;;;;;;;13.82;100.00;100743.03;5055745;28;20040;-84
2022/05/08 04:00:49;;;;;;;14.23;7.70;;;;;;;13.72;100.00;100747.78;5073375;28;20041;-84
2022/05/08 04:03:14;;;;;;;10.13;7.28;;;;;;;13.77;100.00;100740.91;5055769;28;20032;-83
2022/05/08 04:05:40;;;;;;;14.98;7.22;;;;;;;13.58;100.00;100751.19;5073367;28;20036;-84
2022/05/08 04:08:06;;;;;;;10.85;7.57;;;;;;;13.66;100.00;100743.97;5072811;28;20124;-83
2022/05/08 04:10:33;;;;;;;10.43;6.75;;;;;;;13.74;100.00;100753.75;5073101;28;20032;-83
2022/05/08 04:12:59;;;;;;;13.60;7.38;;;;;;;13.88;100.00;100753.81;5073276;28;20032;-83
2022/05/08 04:18:09;;;;;;;9.93;6.97;;;;;;;13.91;100.00;100750.81;5072868;28;20479;-81
2022/05/08 04:20:35;;;;;;;10.70;7.30;;;;;;;13.98;100.00;100759.75;5054667;28;20036;-80
2022/05/08 04:25:45;;;;;;;13.00;8.00;;;;;;;13.81;100.00;100760.03;5072903;28;20028;-82
2022/05/08 04:28:11;;;;;;;14.38;7.65;;;;;;;13.77;100.00;100769.38;5072962;28;20043;-81
2022/05/08 04:30:37;;;;;;;12.23;7.65;;;;;;;13.74;100.00;100761.75;5086776;28;20092;-81
2022/05/08 04:33:03;;;;;;;10.57;7.47;;;;;;;13.80;100.00;100772.50;5093860;28;20066;-82
2022/05/08 04:35:28;;;;;;;12.20;8.07;;;;;;;13.87;100.00;100768.13;5095382;28;20104;-83
2022/05/08 04:37:54;;;;;;;11.32;7.72;;;;;;;13.97;100.00;100767.91;5080724;28;20119;-82
2022/05/08 04:40:20;;;;;;;16.70;8.52;;;;;;;13.87;100.00;100768.13;5073484;28;20045;-82
2022/05/08 04:42:45;;;;;;;12.73;8.32;;;;;;;13.88;100.00;100774.31;5072995;28;20044;-81
2022/05/08 04:45:11;;;;;;;12.60;7.40;;;;;;;13.87;100.00;100773.47;5072854;28;20032;-83
2022/05/08 04:47:36;;;;;;;16.77;8.90;;;;;;;13.88;100.00;100784.97;5073301;28;20082;-81
2022/05/08 04:50:02;;;;;;;16.33;9.05;;;;;;;13.89;100.00;100787.44;5055130;28;20032;-80
2022/05/08 04:52:28;;;;;;;12.63;9.32;;;;;;;13.94;100.00;100785.09;5073031;28;20032;-82
2022/05/08 04:54:53;;;;;;;14.40;9.20;;;;;;;13.91;100.00;100788.09;5072985;28;20033;-82
2022/05/08 04:57:19;;;;;;;14.60;10.10;;;;;;;13.96;100.00;100791.06;5055066;28;20391;-82
2022/05/08 04:59:46;;;;;;;13.70;9.75;;;;;;;14.05;100.00;100796.34;5054971;28;20024;-82
2022/05/08 05:02:12;;;;;;;14.80;8.32;;;;;;;14.13;100.00;100778.44;5076221;28;20061;-81
2022/05/08 05:04:38;;;;;;;12.55;9.30;;;;;;;13.97;100.00;100795.38;5076813;28;20050;-81
2022/05/08 05:07:03;;;;;;;17.23;9.07;;;;;;;14.01;100.00;100795.84;5076662;28;20543;-82
2022/05/08 05:09:29;;;;;;;13.27;9.55;;;;;;;14.05;100.00;100788.34;5076753;28;20098;-83
2022/05/08 05:11:54;;;;;;;17.08;10.50;;;;;;;14.07;100.00;100783.66;5076548;28;20032;-82
2022/05/08 05:14:20;;;;;;;15.45;9.55;;;;;;;14.19;100.00;100783.03;5076526;28;20028;-82
2022/05/08 05:16:46;;;;;;;16.73;9.88;;;;;;;14.30;100.00;100787.13;5076620;28;20462;-83
2022/05/08 05:19:12;;;;;;;14.45;8.90;;;;;;;14.37;100.00;100788.09;5076205;28;20071;-81
2022/05/08 05:21:37;;;;;;;12.57;8.57;;;;;;;14.29;100.00;100793.47;5076093;28;20044;-84
2022/05/08 05:24:03;;;;;;;13.45;8.85;;;;;;;14.32;100.00;100798.44;5076096;28;20043;-82
2022/05/08 05:26:32;;;;;;;14.00;9.10;;;;;;;14.32;100.00;100787.75;5075905;28;20023;-83
2022/05/08 05:28:57;;;;;;;12.10;8.93;;;;;;;14.41;100.00;100802.75;5075734;28;20115;-82
2022/05/08 05:31:24;;;;;;;15.57;9.50;;;;;;;14.31;100.00;100791.47;5076234;28;20067;-83
2022/05/08 05:33:50;;;;;;;13.13;8.82;;;;;;;14.25;100.00;100798.31;5075743;28;20024;-83
2022/05/08 05:36:15;;;;;;;12.70;9.05;;;;;;;14.26;100.00;100799.16;5076118;28;20051;-82
2022/05/08 05:38:41;;;;;;;13.90;9.35;;;;;;;14.10;100.00;100802.78;5058493;28;20498;-85
2022/05/08 05:41:06;;;;;;;16.77;9.80;;;;;;;14.15;100.00;100796.94;5075702;28;20399;-83
2022/05/08 05:43:33;;;;;;;12.98;8.80;;;;;;;14.30;100.00;100808.47;5075864;28;20040;-82
2022/05/08 05:48:43;;;;;;;18.25;8.88;;;;;;;14.57;100.00;100810.59;5075375;28;20403;-85
2022/05/08 05:51:08;;;;;;;17.63;9.35;;;;;;;14.35;100.00;100811.47;5075402;28;20047;-81
2022/05/08 05:53:35;;;;;;;23.58;8.75;;;;;;;14.26;100.00;100807.16;5075442;28;20033;-82
2022/05/08 05:56:01;;;;;;;16.20;9.02;;;;;;;14.27;100.00;100811.47;5057416;28;20090;-81
2022/05/08 05:58:26;;;;;;;15.02;7.95;;;;;;;14.38;100.00;100817.25;5075242;28;20032;-81
2022/05/08 06:00:52;;;;;;;11.77;8.18;;;;;;;14.53;100.00;100816.44;5075464;28;20031;-82
2022/05/08 06:03:17;;;;;;;11.77;8.57;;;;;;;14.51;100.00;100814.00;5057021;28;20451;-83
2022/05/08 06:05:43;;;;;;;19.77;8.70;;;;;;;14.36;100.00;100818.44;5059999;28;20029;-83
2022/05/08 06:08:09;;;;;;;11.05;7.78;;;;;;;14.52;100.00;100820.97;5082072;28;20040;-84
2022/05/08 06:10:35;;;;;;;13.13;8.18;;;;;;;14.63;100.00;100822.38;5081701;28;20119;-82
2022/05/08 06:13:01;;;;;;;14.18;7.38;;;;;;;14.73;100.00;100821.09;5075241;28;20203;-81
2022/05/08 06:15:26;;;;;;;13.88;6.82;;;;;;;14.81;100.00;100821.03;5077092;28;20113;-82
2022/05/08 06:17:52;;;;;;;11.02;6.85;;;;;;;14.89;100.00;100823.59;5077990;28;20067;-83
2022/05/08 06:20:17;;;;;;;12.73;7.50;;;;;;;14.77;100.00;100817.06;5078646;28;20062;-82
2022/05/08 06:22:43;;;;;;;10.82;6.57;;;;;;;14.77;100.00;100819.75;5075761;28;20032;-86
2022/05/08 06:25:09;;;;;;;12.68;7.50;;;;;;;14.92;100.00;100820.56;5059605;28;20033;-84
2022/05/08 06:27:34;;;;;;;12.82;6.90;;;;;;;14.99;100.00;100818.81;5075779;28;20472;-82
2022/05/08 06:30:00;;;;;;;10.73;7.70;;;;;;;15.06;100.00;100823.44;5075711;28;20119;-81
2022/05/08 06:32:26;;;;;;;10.90;6.68;;;;;;;14.90;100.00;100825.28;5075991;28;20035;-83
2022/05/08 06:34:51;;;;;;;12.25;6.95;;;;;;;15.08;100.00;100827.56;5075051;28;20030;-83
2022/05/08 06:37:17;;;;;;;9.02;7.00;;;;;;;15.10;100.00;100830.91;5057644;28;20424;-82
2022/05/08 06:39:43;;;;;;;12.15;7.22;;;;;;;15.13;100.00;100835.03;5076236;28;20418;-85
2022/05/08 06:42:09;;;;;;;14.20;6.40;;;;;;;15.27;100.00;100836.88;5076499;28;20039;-84
2022/05/08 06:44:44;;;;;;;10.73;6.80;;;;;;;15.08;100.00;100837.44;5057917;28;20139;-84
2022/05/08 06:47:09;;;;;;;14.10;6.38;;;;;;;14.99;100.00;100840.19;5076577;28;20119;-82
2022/05/08 06:49:35;;;;;;;8.80;6.65;;;;;;;14.96;100.00;100845.88;5076386;28;20040;-83
2022/05/08 06:52:12;;;;;;;10.43;6.40;;;;;;;14.96;100.00;100840.56;5083490;28;20033;-87
2022/05/08 06:54:38;;;;;;;11.95;6.72;;;;;;;14.89;100.00;100844.97;5076754;28;20111;-85
2022/05/08 06:57:04;;;;;;;14.23;6.90;;;;;;;14.81;100.00;100842.38;5077059;28;20432;-88
2022/05/08 07:02:15;;;;;;;12.25;6.80;;;;;;;14.97;100.00;100857.41;5077087;28;20052;-84
2022/05/08 07:04:41;;;;;;;10.43;6.63;;;;;;;14.95;100.00;100854.91;5075946;28;20029;-84
2022/05/08 07:07:06;;;;;;;10.52;6.63;;;;;;;14.99;100.00;100855.38;5057315;28;20052;-85
2022/05/08 07:09:33;;;;;;;10.43;6.53;;;;;;;14.92;100.00;100857.09;5052463;28;20471;-86
2022/05/08 07:11:58;;;;;;;12.30;6.60;;;;;;;14.89;100.00;100860.13;5060901;28;20036;-84
2022/05/08 07:14:24;;;;;;;11.23;6.85;;;;;;;14.86;100.00;100856.00;5055150;28;20041;-87
2022/05/08 07:16:50;;;;;;;11.55;6.20;;;;;;;14.79;100.00;100860.41;5055218;28;20504;-90
2022/05/08 07:19:15;;;;;;;22.27;8.02;;;;;;;14.83;100.00;100855.53;5044778;28;20066;-90
2022/05/08 07:21:41;;;;;;;10.05;7.38;;;;;;;14.83;100.00;100861.69;5075569;28;20158;-87
2022/05/08 07:24:07;;;;;;;15.27;8.23;;;;;;;14.86;100.00;100861.34;5042373;28;20564;-89
2022/05/08 07:26:32;;;;;;;15.57;9.52;;;;;;;15.02;100.00;100869.19;5039108;28;20036;-88
2022/05/08 07:28:58;;;;;;;12.52;8.82;;;;;;;14.99;100.00;100871.38;5058208;28;20036;-87
2022/05/08 07:31:24;;;;;;;17.10;9.63;;;;;;;14.99;100.00;100872.22;5075171;28;20079;-89
2022/05/08 07:36:12;;;;;;;18.05;10.85;;;;;;;14.93;100.00;100877.44;5046162;28;20043;-89
2022/05/08 07:36:38;;;;;;;19.27;10.90;;;;;;;14.99;100.00;100871.38;5061623;28;20072;-88
2022/05/08 07:39:04;;;;;;;15.00;10.73;;;;;;;14.99;100.00;100877.56;5042301;28;20029;-88
2022/05/08 07:41:30;;;;;;;15.68;10.57;;;;;;;14.95;100.00;100881.59;5046251;28;20109;-86
2022/05/08 07:43:55;;;;;;;16.25;9.73;;;;;;;15.10;100.00;100889.63;5021987;28;20037;-89
2022/05/08 07:46:22;;;;;;;15.57;9.93;;;;;;;15.08;100.00;100896.16;5055905;28;20036;-85
2022/05/08 07:48:47;;;;;;;18.40;10.45;;;;;;;15.16;100.00;100891.56;5036700;28;20499;-84
2022/05/08 07:51:15;;;;;;;18.40;10.50;;;;;;;15.14;100.00;100904.28;5036490;28;20064;-84
2022/05/08 07:53:41;;;;;;;20.67;9.93;;;;;;;15.25;100.00;100902.97;5055153;28;20527;-87
2022/05/08 07:56:07;;;;;;;16.73;11.25;;;;;;;15.21;100.00;100897.16;5054929;28;20053;-85
2022/05/08 07:58:33;;;;;;;18.65;11.27;;;;;;;15.21;100.00;100901.72;5005099;28;20091;-87
2022/05/08 08:00:59;;;;;;;15.50;11.25;;;;;;;15.34;100.00;100899.22;5053543;28;20033;-86
2022/05/08 08:03:29;;;;;;;17.23;10.50;;;;;;;15.44;100.00;100903.25;5063860;28;20036;-85
2022/05/08 08:05:55;;;;;;;16.90;10.32;;;;;;;15.36;100.00;100905.19;5067749;28;20043;-85
2022/05/08 08:08:23;;;;;;;17.52;11.63;;;;;;;15.27;100.00;100911.66;5053497;28;20128;-86
2022/05/08 08:10:55;;;;;;;19.63;11.82;;;;;;;15.12;100.00;100905.44;5060809;28;20120;-84
2022/05/08 08:13:20;;;;;;;22.50;13.23;;;;;;;15.18;100.00;100907.41;5066417;28;20040;-85
2022/05/08 08:15:53;;;;;;;24.40;13.00;;;;;;;15.17;100.00;100911.91;5053684;28;20045;-84
2022/05/08 08:18:19;;;;;;;20.30;12.05;;;;;;;15.27;100.00;100911.66;5077661;28;20033;-92
2022/05/08 08:20:52;;;;;;;18.23;12.38;;;;;;;15.35;100.00;100911.56;5056650;28;20039;-91
2022/05/08 08:26:46;;;;;;;;;;;;;;;;;;;;;
2022/05/08 08:31:53;;;;;;;16.38;10.40;;;;;;;15.27;100.00;100922.34;1226537;26;20057;-89
2022/05/08 08:40:05;;;;;;;16.17;10.48;;;;;;;15.42;100.00;100937.34;3065540;26;20108;-92
2022/05/08 08:42:51;;;;;;;14.15;10.20;;;;;;;15.62;100.00;100935.00;5083965;28;20017;-89
2022/05/08 09:08:01;;;;;;;18.55;12.18;;;;;;;16.50;100.00;100959.72;4519841;22;20350;-91
2022/05/08 09:10:35;;;;;;;17.67;12.77;;;;;;;16.53;100.00;100950.50;5078019;28;20017;-92
2022/05/08 09:13:53;;;;;;;24.00;14.35;;;;;;;16.68;100.00;100945.09;5064707;28;20041;-91
2022/05/08 09:17:15;;;;;;;20.23;12.50;;;;;;;16.71;100.00;100945.56;5096513;28;20040;-92
2022/05/08 09:19:57;;;;;;;20.27;13.03;;;;;;;16.66;100.00;100941.81;5095402;28;20025;-92
2022/05/08 09:22:57;;;;;;;18.80;12.25;;;;;;;16.73;100.00;100948.88;5080484;28;20322;-89
2022/05/08 09:25:25;;;;;;;33.35;14.68;;;;;;;16.77;100.00;100944.78;5080423;28;20043;-90
2022/05/08 09:28:00;;;;;;;21.80;11.68;;;;;;;16.75;100.00;100951.34;5077795;28;20071;-92
2022/05/08 09:30:33;;;;;;;21.45;12.55;;;;;;;16.86;100.00;100940.97;5074104;28;20036;-88
2022/05/08 09:33:35;;;;;;;20.40;12.73;;;;;;;16.79;100.00;100949.97;5062358;28;20146;-90
2022/05/08 09:36:28;;;;;;;18.80;11.98;;;;;;;16.69;100.00;100941.41;5094680;28;20045;-91
2022/05/08 09:39:22;;;;;;;18.58;12.52;;;;;;;16.80;100.00;100947.09;5062851;28;20044;-91
2022/05/08 09:41:54;;;;;;;19.70;12.38;;;;;;;16.90;100.00;100950.25;5090762;28;20068;-90
2022/05/08 09:44:25;;;;;;;17.13;11.35;;;;;;;17.16;100.00;100943.47;5078536;28;20090;-91
2022/05/08 09:47:00;;;;;;;20.40;11.10;;;;;;;17.52;100.00;100953.00;5096419;28;20025;-91
2022/05/08 09:49:31;;;;;;;19.15;11.85;;;;;;;17.63;100.00;100951.66;5081792;28;20036;-90
2022/05/08 09:52:17;;;;;;;18.23;10.75;;;;;;;18.06;100.00;100958.47;5069685;28;20059;-90
2022/05/08 09:54:51;;;;;;;21.60;11.00;;;;;;;18.30;100.00;100953.59;5086778;28;20012;-90
2022/05/08 09:57:59;;;;;;;16.48;10.57;;;;;;;18.57;100.00;100950.00;5100446;28;20048;-92
2022/05/08 10:04:00;;;;;;;21.35;10.40;;;;;;;18.48;100.00;100945.81;4998959;28;20149;-87
2022/05/08 10:06:28;;;;;;;15.00;9.70;;;;;;;18.34;100.00;100944.13;4998545;28;20528;-87
2022/05/08 10:13:53;;;;;;;13.10;10.05;;;;;;;18.03;100.00;100948.13;4982871;28;20034;-86
2022/05/08 10:14:30;;;;;;;15.65;9.18;;;;;;;18.28;100.00;100940.41;4997312;28;20044;-85
2022/05/08 10:17:08;;;;;;;14.18;9.07;;;;;;;18.48;100.00;100945.81;4982564;28;20031;-88
2022/05/08 10:19:33;;;;;;;12.23;7.82;;;;;;;18.59;100.00;100935.31;5000876;28;20085;-84
2022/05/08 10:22:00;;;;;;;12.98;9.13;;;;;;;18.75;100.00;100942.19;4999669;28;20046;-85
2022/05/08 10:24:32;;;;;;;17.30;9.77;;;;;;;18.51;100.00;100937.38;5002761;28;20523;-86
2022/05/08 10:27:16;;;;;;;;;;;;;;;18.79;100.00;100931.84;5006191;28;20037;-87
2022/05/08 10:30:05;;;;;;;13.90;8.70;;;;;;;19.06;100.00;100934.31;4991977;28;19921;-88
2022/05/08 10:32:58;;;;;;;14.00;8.85;;;;;;;18.95;100.00;100920.69;4996138;28;20057;-88
2022/05/08 10:35:51;;;;;;;14.35;9.63;;;;;;;18.94;100.00;100917.19;4978060;28;20054;-92
2022/05/08 10:38:19;;;;;;;13.48;9.23;;;;;;;18.96;100.00;100917.78;5002323;28;20046;-90
2022/05/08 10:40:49;;;;;;;11.80;8.23;;;;;;;19.02;100.00;100908.91;5008111;28;20049;-91
2022/05/08 10:43:26;;;;;;;12.93;8.57;;;;;;;19.17;100.00;100913.22;4980016;28;20375;-93
2022/05/08 10:45:55;;;;;;;13.15;9.02;;;;;;;19.37;100.00;100914.88;4994771;28;20114;-87
2022/05/08 10:48:22;;;;;;;14.68;9.18;;;;;;;20.01;100.00;100922.16;5010976;28;20042;-88
2022/05/08 10:54:15;;;;;;;15.90;9.20;;;;;;;21.47;100.00;100915.50;5222556;22;20056;-89
2022/05/08 10:56:58;;;;;;;15.90;9.20;;;;;;;21.45;100.00;100914.91;5049557;28;20070;-90
2022/05/08 10:59:43;;;;;;;12.82;9.10;;;;;;;21.51;100.00;100920.22;5050757;28;20089;-87
2022/05/08 11:02:16;;;;;;;13.52;8.40;;;;;;;21.55;100.00;100920.59;5054202;28;20162;-89
2022/05/08 11:08:43;;;;;;;11.82;8.70;;;;;;;21.60;100.00;100923.47;5059116;28;20045;-87
2022/05/08 11:14:10;;;;;;;12.55;9.43;;;;;;;20.75;100.00;100908.88;5092639;28;20048;-88
2022/05/08 11:16:44;;;;;;;12.70;9.55;;;;;;;20.86;100.00;100899.25;5086577;28;20087;-87
2022/05/08 11:19:10;;;;;;;25.95;11.40;;;;;;;21.26;100.00;100899.75;5095408;28;20037;-89
2022/05/08 11:27:19;;;;;;;10.95;8.40;;;;;;;21.01;100.00;100887.09;5018901;23;20031;-89
2022/05/08 11:36:06;;;;;;;13.68;9.30;;;;;;;19.82;100.00;100885.41;5020343;28;20048;-87
2022/05/08 11:38:51;;;;;;;18.38;9.30;;;;;;;19.53;100.00;100889.41;5003753;28;20424;-88
2022/05/08 11:41:22;;;;;;;12.57;9.18;;;;;;;19.40;100.00;100892.09;4992365;28;20128;-90
2022/05/08 11:44:13;;;;;;;14.15;9.88;;;;;;;19.42;100.00;100892.78;5005803;28;20038;-87
2022/05/08 11:46:49;;;;;;;15.90;10.57;;;;;;;19.25;100.00;100894.22;5019567;28;20041;-91
2022/05/08 11:49:29;;;;;;;13.15;10.45;;;;;;;18.84;100.00;100895.28;5077687;28;20029;-88
2022/05/08 11:52:06;;;;;;;14.00;9.38;;;;;;;18.97;100.00;100892.59;5067456;28;20041;-91
2022/05/08 11:54:40;;;;;;;20.52;11.10;;;;;;;18.86;100.00;100889.69;5069813;28;20045;-86
2022/05/08 11:57:12;;;;;;;16.48;10.52;;;;;;;18.98;100.00;100904.16;5072145;28;20068;-90
2022/05/08 11:59:39;;;;;;;15.38;11.68;;;;;;;19.08;100.00;100904.56;5051256;28;20056;-87
2022/05/08 12:02:04;;;;;;;20.50;12.73;;;;;;;18.94;100.00;100900.25;5070943;28;20016;-89
2022/05/08 12:04:34;;;;;;;19.38;12.13;;;;;;;18.78;100.00;100912.22;5071902;28;20067;-88
2022/05/08 12:07:06;;;;;;;17.55;13.07;;;;;;;17.87;100.00;100923.50;5081471;28;20050;-90
2022/05/08 12:09:36;;;;;;;34.88;14.73;;;;;;;17.31;100.00;100912.88;5051709;28;20041;-89
2022/05/08 12:12:44;;;;;;;21.33;13.38;;;;;;;16.88;100.00;100903.28;5052132;28;20131;-91
2022/05/08 12:15:10;;;;;;;22.35;14.02;;;;;;;16.64;100.00;100907.19;4963820;28;20047;-89
2022/05/08 12:17:48;;;;;;;23.58;15.48;;;;;;;16.55;100.00;100913.69;4954156;29;20054;-88
2022/05/08 12:20:25;;;;;;;29.25;16.92;;;;;;;16.29;100.00;100914.22;4952114;29;20111;-89
2022/05/08 12:23:05;;;;;;;25.92;15.35;;;;;;;16.35;100.00;100907.28;4976665;28;20038;-85
2022/05/08 12:25:41;;;;;;;25.75;15.88;;;;;;;16.21;100.00;100914.34;4978696;28;20046;-89
2022/05/08 12:28:10;;;;;;;21.55;14.20;;;;;;;16.23;100.00;100909.66;4966958;28;20047;-88
2022/05/08 12:30:38;;;;;;;15.60;11.73;;;;;;;16.15;100.00;100911.59;4953659;28;20047;-89
2022/05/08 12:33:25;;;;;;;17.58;11.68;;;;;;;16.15;100.00;100917.78;4975697;28;20045;-87